createdAt,value
2018-04-10T00:02:21.472Z,52.40
2018-04-10T00:04:48.927Z,52.30
2018-04-10T00:07:17.132Z,52.40
2018-04-10T00:09:44.739Z,52.60
2018-04-10T00:12:13.004Z,52.70
2018-04-10T00:14:41.246Z,53.10
2018-04-10T00:17:08.708Z,53.00
2018-04-10T00:19:36.268Z,53.80
2018-04-10T00:22:03.824Z,53.60
2018-04-10T00:24:31.268Z,53.70
2018-04-10T00:26:58.908Z,53.60
2018-04-10T00:29:26.561Z,53.90
2018-04-10T00:31:54.458Z,54.00
2018-04-10T00:34:21.976Z,54.20
2018-04-10T00:36:49.488Z,54.60
2018-04-10T00:39:16.933Z,54.90
2018-04-10T00:41:45.505Z,55.30
2018-04-10T00:44:13.064Z,55.30
2018-04-10T00:46:40.511Z,55.30
2018-04-10T00:49:07.959Z,55.40
2018-04-10T00:51:35.408Z,55.40
2018-04-10T00:54:03.208Z,55.10
2018-04-10T00:56:30.664Z,55.20
2018-04-10T00:58:58.144Z,55.40
2018-04-10T01:01:25.604Z,55.50
2018-04-10T01:03:53.060Z,55.30
2018-04-10T01:06:20.624Z,55.30
2018-04-10T01:08:48.176Z,55.40
2018-04-10T01:11:15.627Z,55.20
2018-04-10T01:13:43.080Z,55.30
2018-04-10T01:16:10.524Z,55.70
2018-04-10T01:18:37.976Z,56.10
2018-04-10T01:21:05.578Z,56.40
2018-04-10T01:23:33.800Z,57.50
2018-04-10T01:26:01.308Z,57.50
2018-04-10T01:28:28.752Z,58.20
2018-04-10T01:30:57.116Z,58.80
2018-04-10T01:33:25.272Z,59.10
2018-04-10T01:35:52.912Z,59.40
2018-04-10T01:38:21.132Z,59.60
2018-04-10T01:40:49.781Z,59.60
2018-04-10T01:43:18.420Z,60.30
2018-04-10T01:45:45.876Z,60.30
2018-04-10T01:48:13.319Z,60.80
2018-04-10T01:50:40.912Z,60.90
2018-04-10T01:53:08.576Z,61.40
2018-04-10T01:55:36.033Z,61.60
2018-04-10T01:58:03.495Z,61.40
2018-04-10T02:00:31.662Z,61.20
2018-04-10T02:02:59.220Z,61.40
2018-04-10T02:05:27.381Z,61.30
2018-04-10T02:07:55.340Z,61.00
2018-04-10T02:10:22.799Z,60.70
2018-04-10T02:18:14.776Z,61.10
2018-04-10T02:20:42.256Z,61.00
2018-04-10T02:23:09.809Z,61.60
2018-04-10T02:25:37.332Z,62.10
2018-04-10T02:28:05.032Z,62.10
2018-04-10T02:30:32.592Z,62.20
2018-04-10T02:33:00.043Z,62.10
2018-04-10T02:35:27.616Z,62.40
2018-04-10T02:37:55.773Z,62.40
2018-04-10T02:40:23.234Z,62.70
2018-04-10T02:42:50.691Z,62.90
2018-04-10T02:45:18.364Z,62.40
2018-04-10T02:47:45.887Z,62.90
2018-04-10T02:50:13.324Z,63.30
2018-04-10T02:52:40.868Z,63.60
2018-04-10T02:55:09.092Z,64.30
2018-04-10T02:57:36.546Z,64.30
2018-04-10T03:00:03.993Z,64.10
2018-04-10T03:02:31.456Z,64.50
2018-04-10T03:04:58.924Z,64.30
2018-04-10T03:07:26.411Z,64.20
2018-04-10T03:09:53.856Z,64.00
2018-04-10T03:12:21.320Z,63.90
2018-04-10T03:14:49.438Z,64.40
2018-04-10T03:17:17.660Z,65.60
2018-04-10T03:19:45.113Z,64.70
2018-04-10T03:22:12.657Z,64.70
2018-04-10T03:24:40.624Z,65.00
2018-04-10T03:27:08.781Z,65.10
2018-04-10T03:29:36.445Z,64.80
2018-04-10T03:32:04.169Z,65.20
2018-04-10T03:34:31.617Z,65.40
2018-04-10T03:36:59.648Z,65.20
2018-04-10T03:39:27.600Z,64.70
2018-04-10T03:41:55.837Z,64.40
2018-04-10T03:44:23.545Z,64.40
2018-04-10T03:46:51.060Z,64.60
2018-04-10T03:49:18.524Z,64.70
2018-04-10T03:51:45.980Z,64.00
2018-04-10T03:54:13.429Z,64.00
2018-04-10T03:56:40.998Z,64.10
2018-04-10T03:59:08.444Z,64.10
2018-04-10T04:01:36.077Z,64.00
2018-04-10T04:04:03.524Z,64.20
2018-04-10T04:06:31.884Z,64.50
2018-04-10T04:09:00.382Z,64.80
2018-04-10T04:11:27.792Z,64.70
2018-04-10T04:13:55.760Z,65.60
2018-04-10T04:16:35.056Z,65.40
2018-04-10T04:19:14.478Z,65.50
2018-04-10T04:21:53.804Z,65.40
2018-04-10T04:24:22.049Z,65.70
2018-04-10T04:26:49.568Z,66.40
2018-04-10T04:29:17.841Z,66.70
2018-04-10T04:31:45.296Z,66.20
2018-04-10T04:34:13.472Z,66.50
2018-04-10T04:36:40.977Z,66.40
2018-04-10T04:39:08.432Z,66.30
2018-04-10T04:41:35.897Z,66.30
2018-04-10T04:44:04.731Z,66.00
2018-04-10T04:46:32.516Z,66.10
2018-04-10T04:48:59.968Z,66.00
2018-04-10T04:51:28.140Z,66.00
2018-04-10T04:53:55.701Z,65.90
2018-04-10T04:56:23.160Z,65.60
2018-04-10T04:58:50.608Z,65.80
2018-04-10T05:01:18.316Z,65.00
2018-04-10T05:03:45.769Z,64.70
2018-04-10T05:06:13.232Z,64.50
2018-04-10T05:08:40.688Z,64.10
2018-04-10T05:11:08.152Z,63.80
2018-04-10T05:13:35.608Z,63.40
2018-04-10T05:16:03.129Z,63.00
2018-04-10T05:18:31.768Z,62.70
2018-04-10T05:20:59.211Z,63.10
2018-04-10T05:23:27.296Z,62.20
2018-04-10T05:25:54.731Z,61.90
2018-04-10T05:28:22.214Z,61.90
2018-04-10T05:30:49.681Z,61.80
2018-04-10T05:33:18.576Z,61.40
2018-04-10T05:35:48.016Z,60.80
2018-04-10T05:38:16.192Z,60.70
2018-04-10T05:40:43.897Z,60.50
2018-04-10T05:43:12.072Z,59.60
2018-04-10T05:45:39.528Z,59.30
2018-04-10T05:48:06.976Z,59.20
2018-04-10T05:50:34.504Z,58.90
2018-04-10T05:53:02.307Z,58.60
2018-04-10T05:55:30.472Z,57.30
2018-04-10T05:57:57.936Z,57.10
2018-04-10T06:00:25.417Z,56.90
2018-04-10T06:02:52.864Z,56.80
2018-04-10T06:05:20.426Z,56.60
2018-04-10T06:07:48.348Z,56.40
2018-04-10T06:10:15.805Z,56.30
2018-04-10T06:12:43.864Z,56.10
2018-04-10T06:15:11.326Z,56.20
2018-04-10T06:17:38.890Z,55.90
2018-04-10T06:20:06.349Z,56.00
2018-04-10T06:22:33.852Z,56.00
2018-04-10T06:25:01.312Z,56.00
2018-04-10T06:27:28.760Z,55.90
2018-04-10T06:29:56.693Z,55.80
2018-04-10T06:32:24.140Z,56.00
2018-04-10T06:34:51.656Z,56.20
2018-04-10T06:37:19.161Z,56.20
2018-04-10T06:39:46.788Z,56.00
2018-04-10T06:42:15.060Z,55.00
2018-04-10T06:44:42.520Z,54.30
2018-04-10T06:47:09.972Z,53.60
2018-04-10T06:49:38.310Z,52.90
2018-04-10T06:52:06.428Z,52.90
2018-04-10T06:54:33.884Z,52.30
2018-04-10T06:57:02.800Z,52.00
2018-04-10T06:59:31.032Z,52.00
2018-04-10T07:01:58.761Z,52.00
2018-04-10T07:04:26.273Z,52.30
2018-04-10T07:06:54.528Z,52.30
2018-04-10T07:09:21.989Z,52.00
2018-04-10T07:11:49.860Z,52.30
2018-04-10T07:14:18.401Z,53.10
2018-04-10T07:16:45.873Z,53.50
2018-04-10T07:19:13.684Z,53.90
2018-04-10T07:21:41.864Z,54.10
2018-04-10T07:24:09.328Z,54.00
2018-04-10T07:26:36.780Z,53.80
2018-04-10T07:29:04.846Z,53.50
2018-04-10T07:31:32.306Z,52.90
2018-04-10T07:33:59.764Z,53.00
2018-04-10T07:36:27.222Z,52.60
2018-04-10T07:38:54.780Z,52.30
2018-04-10T07:41:22.639Z,52.60
2018-04-10T07:43:50.925Z,52.40
2018-04-10T07:46:18.916Z,52.80
2018-04-10T07:48:47.154Z,52.60
2018-04-10T07:51:14.617Z,52.50
2018-04-10T07:53:42.401Z,52.20
2018-04-10T07:56:09.856Z,51.80
2018-04-10T07:58:37.403Z,51.50
2018-04-10T08:01:04.860Z,51.90
2018-04-10T08:03:33.049Z,51.30
2018-04-10T08:06:00.504Z,51.10
2018-04-10T08:08:27.989Z,50.80
2018-04-10T08:10:57.221Z,50.50
2018-04-10T08:13:24.981Z,50.50
2018-04-10T08:15:52.438Z,50.50
2018-04-10T08:18:20.652Z,50.30
2018-04-10T08:20:49.560Z,50.10
2018-04-10T08:23:17.020Z,49.90
2018-04-10T08:25:44.472Z,49.60
2018-04-10T08:28:12.724Z,49.60
2018-04-10T08:30:40.180Z,49.30
2018-04-10T08:33:07.660Z,49.20
2018-04-10T08:35:35.117Z,49.20
2018-04-10T08:38:02.942Z,49.40
2018-04-10T08:40:30.384Z,49.90
2018-04-10T08:42:57.904Z,49.60
2018-04-10T08:45:26.972Z,48.90
2018-04-10T08:47:55.068Z,48.90
2018-04-10T08:50:22.536Z,49.60
2018-04-10T08:52:50.117Z,50.10
2018-04-10T08:55:17.544Z,49.60
2018-04-10T08:57:45.824Z,48.40
2018-04-10T09:00:13.988Z,48.50
2018-04-10T09:02:41.568Z,48.60
2018-04-10T09:05:09.737Z,48.50
2018-04-10T09:07:37.288Z,47.50
2018-04-10T09:10:04.748Z,47.00
2018-04-10T09:12:34.464Z,47.50
2018-04-10T09:15:01.924Z,46.80
2018-04-10T09:17:29.389Z,46.80
2018-04-10T09:19:56.842Z,45.90
2018-04-10T09:22:24.396Z,46.10
2018-04-10T09:24:52.301Z,45.20
2018-04-10T09:27:20.664Z,44.90
2018-04-10T09:29:49.567Z,45.50
2018-04-10T09:32:17.804Z,45.00
2018-04-10T09:34:45.976Z,44.90
2018-04-10T09:37:13.550Z,45.30
2018-04-10T09:39:41.777Z,46.00
2018-04-10T09:42:09.616Z,46.10
2018-04-10T09:44:39.008Z,45.80
2018-04-10T09:47:06.676Z,45.80
2018-04-10T09:49:34.897Z,45.10
2018-04-10T09:52:03.193Z,45.10
2018-04-10T09:54:30.652Z,44.70
2018-04-10T09:56:58.128Z,44.70
2018-04-10T09:59:25.803Z,44.60
2018-04-10T10:01:53.353Z,44.80
2018-04-10T10:04:20.804Z,45.10
2018-04-10T10:06:48.568Z,45.30
2018-04-10T10:09:16.024Z,44.90
2018-04-10T10:11:43.492Z,44.80
2018-04-10T10:14:10.943Z,44.30
2018-04-10T10:16:39.261Z,44.40
2018-04-10T10:19:08.845Z,44.30
2018-04-10T10:21:36.396Z,45.00
2018-04-10T10:24:03.845Z,43.70
2018-04-10T10:26:31.872Z,43.60
2018-04-10T10:28:59.856Z,42.50
2018-04-10T10:31:27.328Z,42.00
2018-04-10T10:33:54.785Z,41.10
2018-04-10T10:36:22.278Z,41.10
2018-04-10T10:38:49.732Z,41.70
2018-04-10T10:41:17.201Z,41.60
2018-04-10T10:43:44.653Z,40.80
2018-04-10T10:46:12.117Z,41.10
2018-04-10T10:48:40.581Z,39.70
2018-04-10T10:51:08.804Z,39.30
2018-04-10T10:53:36.374Z,39.20
2018-04-10T10:56:04.277Z,39.10
2018-04-10T10:58:31.733Z,38.90
2018-04-10T11:00:59.208Z,38.20
2018-04-10T11:03:26.653Z,38.50
2018-04-10T11:05:54.120Z,38.10
2018-04-10T11:08:22.364Z,37.30
2018-04-10T11:10:49.805Z,37.30
2018-04-10T11:13:17.835Z,37.50
2018-04-10T11:15:45.295Z,36.60
2018-04-10T11:18:12.761Z,36.60
2018-04-10T11:20:41.013Z,37.50
2018-04-10T11:23:08.464Z,37.50
2018-04-10T11:25:36.629Z,37.30
2018-04-10T11:28:04.124Z,37.10
2018-04-10T11:30:31.602Z,35.80
2018-04-10T11:33:00.388Z,34.40
2018-04-10T11:35:28.616Z,34.40
2018-04-10T11:37:56.912Z,34.40
2018-04-10T11:40:24.360Z,34.30
2018-04-10T11:42:51.933Z,34.40
2018-04-10T11:45:19.403Z,34.80
2018-04-10T11:47:47.632Z,35.70
2018-04-10T11:50:15.844Z,35.80
2018-04-10T11:52:43.304Z,36.00
2018-04-10T11:55:10.758Z,36.60
2018-04-10T11:57:38.227Z,36.50
2018-04-10T12:00:05.904Z,37.20
2018-04-10T12:02:34.215Z,38.50
2018-04-10T12:05:01.677Z,38.40
2018-04-10T12:07:29.624Z,38.50
2018-04-10T12:09:57.438Z,39.60
2018-04-10T12:12:24.904Z,38.60
2018-04-10T12:14:52.364Z,40.10
2018-04-10T12:17:19.920Z,40.50
2018-04-10T12:19:47.857Z,40.90
2018-04-10T12:22:15.501Z,40.30
2018-04-10T12:24:42.974Z,39.80
2018-04-10T12:27:10.585Z,40.20
2018-04-10T12:29:38.045Z,39.90
2018-04-10T12:32:05.512Z,40.00
2018-04-10T12:34:34.648Z,40.00
2018-04-10T12:37:02.764Z,39.80
2018-04-10T12:39:30.220Z,39.80
2018-04-10T12:41:58.296Z,39.70
2018-04-10T12:44:25.811Z,39.30
2018-04-10T12:46:53.275Z,39.70
2018-04-10T12:49:20.845Z,39.80
2018-04-10T12:51:48.308Z,39.10
2018-04-10T12:54:15.772Z,39.10
2018-04-10T12:56:43.352Z,39.00
2018-04-10T12:59:11.021Z,39.10
2018-04-10T13:01:38.981Z,38.70
2018-04-10T13:04:07.622Z,39.40
2018-04-10T13:06:35.073Z,40.00
2018-04-10T13:09:02.643Z,39.70
2018-04-10T13:11:30.968Z,39.20
2018-04-10T13:13:59.741Z,39.80
2018-04-10T13:16:27.211Z,41.00
2018-04-10T13:18:55.512Z,40.50
2018-04-10T13:21:23.759Z,40.10
2018-04-10T13:23:51.220Z,40.00
2018-04-10T13:26:19.508Z,41.00
2018-04-10T13:28:46.969Z,40.90
2018-04-10T13:31:14.520Z,41.00
2018-04-10T13:33:41.972Z,41.20
2018-04-10T13:36:10.561Z,41.30
2018-04-10T13:38:38.027Z,41.60
2018-04-10T13:41:05.493Z,41.70
2018-04-10T13:43:34.425Z,41.90
2018-04-10T13:46:01.884Z,41.20
2018-04-10T13:48:29.352Z,41.50
2018-04-10T13:50:57.436Z,41.20
2018-04-10T13:53:24.897Z,40.40
2018-04-10T13:55:53.644Z,40.70
2018-04-10T13:58:21.671Z,40.60
2018-04-10T14:00:49.952Z,39.80
2018-04-10T14:03:17.409Z,38.90
2018-04-10T14:05:46.504Z,38.90
2018-04-10T14:08:15.012Z,38.90
2018-04-10T14:10:43.269Z,39.50
2018-04-10T14:13:12.064Z,39.40
2018-04-10T14:15:39.536Z,38.70
2018-04-10T14:18:08.303Z,38.70
2018-04-10T14:20:35.760Z,38.60
2018-04-10T14:23:03.840Z,38.70
2018-04-10T14:25:31.296Z,38.80
2018-04-10T14:27:58.754Z,38.40
2018-04-10T14:30:26.204Z,38.80
2018-04-10T14:32:54.912Z,38.10
2018-04-10T14:35:23.148Z,37.40
2018-04-10T14:37:51.241Z,37.40
2018-04-10T14:40:19.472Z,37.50
2018-04-10T14:42:46.926Z,37.00
2018-04-10T14:45:14.436Z,37.00
2018-04-10T14:47:41.893Z,36.60
2018-04-10T14:50:09.352Z,36.10
2018-04-10T14:52:36.976Z,36.30
2018-04-10T14:55:04.432Z,36.50
2018-04-10T14:57:32.194Z,36.30
2018-04-10T14:59:59.828Z,35.70
2018-04-10T15:02:28.064Z,35.20
2018-04-10T15:04:55.737Z,35.10
2018-04-10T15:07:23.183Z,34.60
2018-04-10T15:09:50.648Z,34.60
2018-04-10T15:12:18.096Z,35.00
2018-04-10T15:14:46.093Z,36.00
2018-04-10T15:17:13.544Z,36.60
2018-04-10T15:19:41.137Z,36.50
2018-04-10T15:22:09.356Z,36.60
2018-04-10T15:24:36.816Z,36.60
2018-04-10T15:27:04.273Z,36.80
2018-04-10T15:29:31.730Z,36.30
2018-04-10T15:31:59.189Z,35.80
2018-04-10T15:34:26.646Z,36.00
2018-04-10T15:36:54.096Z,35.70
2018-04-10T15:39:21.564Z,35.30
2018-04-10T15:41:49.020Z,35.60
2018-04-10T15:44:17.933Z,35.90
2018-04-10T15:46:47.072Z,36.30
2018-04-10T15:49:15.305Z,35.90
2018-04-10T15:51:42.852Z,35.80
2018-04-10T15:54:10.320Z,35.30
2018-04-10T15:56:38.316Z,35.50
2018-04-10T15:59:06.570Z,36.10
2018-04-10T16:01:34.020Z,36.10
2018-04-10T16:04:02.040Z,36.20
2018-04-10T16:06:30.248Z,36.60
2018-04-10T16:08:57.736Z,36.60
2018-04-10T16:11:25.191Z,36.90
2018-04-10T16:13:53.357Z,37.50
2018-04-10T16:16:21.740Z,37.40
2018-04-10T16:18:49.309Z,37.50
2018-04-10T16:21:16.820Z,37.40
2018-04-10T16:23:44.324Z,38.30
2018-04-10T16:26:12.824Z,38.00
2018-04-10T16:28:40.288Z,37.10
2018-04-10T16:31:07.733Z,38.20
2018-04-10T16:33:35.296Z,38.10
2018-04-10T16:36:02.756Z,39.10
2018-04-10T16:38:30.733Z,39.60
2018-04-10T16:40:59.057Z,39.90
2018-04-10T16:43:27.160Z,39.80
2018-04-10T16:45:55.265Z,40.60
2018-04-10T16:48:23.492Z,40.20
2018-04-10T16:50:50.944Z,40.10
2018-04-10T16:53:18.412Z,40.60
2018-04-10T16:55:45.864Z,41.80
2018-04-10T16:58:13.333Z,42.10
2018-04-10T17:00:41.092Z,42.30
2018-04-10T17:03:08.569Z,42.80
2018-04-10T17:05:37.253Z,43.60
2018-04-10T17:08:04.815Z,43.60
2018-04-10T17:10:32.280Z,44.10
2018-04-10T17:12:59.746Z,45.20
2018-04-10T17:15:28.220Z,44.60
2018-04-10T17:17:55.684Z,45.20
2018-04-10T17:20:23.714Z,45.40
2018-04-10T17:22:51.180Z,45.50
2018-04-10T17:25:18.635Z,46.60
2018-04-10T17:27:46.948Z,46.30
2018-04-10T17:30:15.357Z,48.40
2018-04-10T17:32:43.289Z,46.50
2018-04-10T20:44:41.675Z,65.20
2018-04-10T20:47:09.145Z,65.50
2018-04-10T20:49:36.655Z,65.60
2018-04-10T20:52:04.888Z,66.30
2018-04-10T20:54:32.352Z,66.20
2018-04-10T20:56:59.817Z,67.20
2018-04-10T20:59:28.040Z,68.40
2018-04-10T21:01:55.538Z,68.40
2018-04-10T21:04:22.996Z,68.60
2018-04-10T21:06:50.563Z,68.80
2018-04-10T21:09:18.020Z,69.00
2018-04-10T21:11:45.572Z,69.10
